sensor_id;sensor_type;location;lat;lon;timestamp;P1;durP1;ratioP1;P2;durP2;ratioP2
4758;SDS011;2393;50.560;12.636;2023-04-29T00:00:07;7.63;;;5.37;;
4758;SDS011;2393;50.560;12.636;2023-04-29T00:02:39;7.07;;;5.00;;
4758;SDS011;2393;50.560;12.636;2023-04-29T00:05:08;6.70;;;4.80;;
4758;SDS011;2393;50.560;12.636;2023-04-29T00:07:37;17.33;;;5.20;;
4758;SDS011;2393;50.560;12.636;2023-04-29T00:10:07;8.23;;;5.00;;
4758;SDS011;2393;50.560;12.636;2023-04-29T00:12:35;6.63;;;4.97;;
4758;SDS011;2393;50.560;12.636;2023-04-29T00:15:04;6.17;;;4.93;;
4758;SDS011;2393;50.560;12.636;2023-04-29T00:17:32;5.83;;;3.83;;
4758;SDS011;2393;50.560;12.636;2023-04-29T00:20:01;8.27;;;4.93;;
4758;SDS011;2393;50.560;12.636;2023-04-29T00:22:30;8.67;;;4.77;;
4758;SDS011;2393;50.560;12.636;2023-04-29T00:24:58;6.67;;;5.23;;
4758;SDS011;2393;50.560;12.636;2023-04-29T00:27:27;5.77;;;4.70;;
4758;SDS011;2393;50.560;12.636;2023-04-29T00:29:55;10.03;;;4.40;;
4758;SDS011;2393;50.560;12.636;2023-04-29T00:32:24;8.40;;;5.00;;
4758;SDS011;2393;50.560;12.636;2023-04-29T00:34:52;5.97;;;4.77;;
4758;SDS011;2393;50.560;12.636;2023-04-29T00:37:23;9.10;;;5.63;;
4758;SDS011;2393;50.560;12.636;2023-04-29T00:39:52;7.33;;;5.43;;
4758;SDS011;2393;50.560;12.636;2023-04-29T00:42:20;9.10;;;5.43;;
4758;SDS011;2393;50.560;12.636;2023-04-29T00:44:49;9.00;;;5.93;;
4758;SDS011;2393;50.560;12.636;2023-04-29T00:47:17;4.57;;;4.10;;
4758;SDS011;2393;50.560;12.636;2023-04-29T00:49:45;7.50;;;5.00;;
4758;SDS011;2393;50.560;12.636;2023-04-29T00:52:13;9.30;;;4.87;;
4758;SDS011;2393;50.560;12.636;2023-04-29T00:54:43;8.80;;;5.53;;
4758;SDS011;2393;50.560;12.636;2023-04-29T00:57:12;6.33;;;4.90;;
4758;SDS011;2393;50.560;12.636;2023-04-29T00:59:41;7.57;;;5.90;;
4758;SDS011;2393;50.560;12.636;2023-04-29T01:02:12;7.00;;;4.63;;
4758;SDS011;2393;50.560;12.636;2023-04-29T01:04:40;6.20;;;4.90;;
4758;SDS011;2393;50.560;12.636;2023-04-29T01:07:12;7.37;;;5.23;;
4758;SDS011;2393;50.560;12.636;2023-04-29T01:09:46;8.83;;;5.27;;
4758;SDS011;2393;50.560;12.636;2023-04-29T01:12:25;6.90;;;4.87;;
4758;SDS011;2393;50.560;12.636;2023-04-29T01:15:02;10.90;;;6.17;;
4758;SDS011;2393;50.560;12.636;2023-04-29T01:17:37;7.20;;;5.50;;
4758;SDS011;2393;50.560;12.636;2023-04-29T01:20:09;7.77;;;5.33;;
4758;SDS011;2393;50.560;12.636;2023-04-29T01:22:38;12.73;;;6.50;;
4758;SDS011;2393;50.560;12.636;2023-04-29T01:25:08;7.80;;;5.77;;
4758;SDS011;2393;50.560;12.636;2023-04-29T01:28:19;5.73;;;5.00;;
4758;SDS011;2393;50.560;12.636;2023-04-29T01:30:55;7.33;;;4.93;;
4758;SDS011;2393;50.560;12.636;2023-04-29T01:33:32;6.70;;;4.70;;
4758;SDS011;2393;50.560;12.636;2023-04-29T01:36:17;6.57;;;5.00;;
4758;SDS011;2393;50.560;12.636;2023-04-29T01:38:55;7.03;;;5.23;;
4758;SDS011;2393;50.560;12.636;2023-04-29T01:41:38;6.23;;;4.30;;
4758;SDS011;2393;50.560;12.636;2023-04-29T01:44:19;6.97;;;5.23;;
4758;SDS011;2393;50.560;12.636;2023-04-29T01:46:51;7.30;;;5.20;;
4758;SDS011;2393;50.560;12.636;2023-04-29T01:49:25;6.37;;;4.90;;
4758;SDS011;2393;50.560;12.636;2023-04-29T01:51:54;7.70;;;4.90;;
4758;SDS011;2393;50.560;12.636;2023-04-29T01:54:23;8.00;;;5.73;;
4758;SDS011;2393;50.560;12.636;2023-04-29T01:56:52;7.10;;;6.20;;
4758;SDS011;2393;50.560;12.636;2023-04-29T01:59:34;9.33;;;5.37;;
4758;SDS011;2393;50.560;12.636;2023-04-29T02:02:31;9.70;;;6.00;;
4758;SDS011;2393;50.560;12.636;2023-04-29T02:05:09;8.90;;;4.47;;
4758;SDS011;2393;50.560;12.636;2023-04-29T02:07:41;10.43;;;5.60;;
4758;SDS011;2393;50.560;12.636;2023-04-29T02:10:10;7.30;;;5.37;;
4758;SDS011;2393;50.560;12.636;2023-04-29T02:12:42;5.80;;;5.10;;
4758;SDS011;2393;50.560;12.636;2023-04-29T02:15:10;7.30;;;5.40;;
4758;SDS011;2393;50.560;12.636;2023-04-29T02:17:38;7.80;;;4.97;;
4758;SDS011;2393;50.560;12.636;2023-04-29T02:20:07;10.63;;;5.30;;
4758;SDS011;2393;50.560;12.636;2023-04-29T02:22:36;7.63;;;5.23;;
4758;SDS011;2393;50.560;12.636;2023-04-29T02:25:04;7.37;;;5.03;;
4758;SDS011;2393;50.560;12.636;2023-04-29T02:27:33;5.30;;;4.80;;
4758;SDS011;2393;50.560;12.636;2023-04-29T02:30:02;6.90;;;4.70;;
4758;SDS011;2393;50.560;12.636;2023-04-29T02:32:31;6.43;;;5.17;;
4758;SDS011;2393;50.560;12.636;2023-04-29T02:34:59;6.90;;;5.20;;
4758;SDS011;2393;50.560;12.636;2023-04-29T02:37:27;6.63;;;5.00;;
4758;SDS011;2393;50.560;12.636;2023-04-29T02:39:55;7.27;;;6.27;;
4758;SDS011;2393;50.560;12.636;2023-04-29T02:42:23;6.57;;;5.63;;
4758;SDS011;2393;50.560;12.636;2023-04-29T02:44:51;7.13;;;5.63;;
4758;SDS011;2393;50.560;12.636;2023-04-29T02:47:21;5.23;;;4.70;;
4758;SDS011;2393;50.560;12.636;2023-04-29T02:49:49;6.90;;;5.37;;
4758;SDS011;2393;50.560;12.636;2023-04-29T02:52:17;7.70;;;5.20;;
4758;SDS011;2393;50.560;12.636;2023-04-29T02:54:46;7.23;;;5.63;;
4758;SDS011;2393;50.560;12.636;2023-04-29T02:57:15;5.20;;;4.50;;
4758;SDS011;2393;50.560;12.636;2023-04-29T02:59:43;7.90;;;5.47;;
4758;SDS011;2393;50.560;12.636;2023-04-29T03:02:11;9.17;;;5.67;;
4758;SDS011;2393;50.560;12.636;2023-04-29T03:04:43;5.83;;;4.80;;
4758;SDS011;2393;50.560;12.636;2023-04-29T03:07:11;6.30;;;5.37;;
4758;SDS011;2393;50.560;12.636;2023-04-29T03:09:42;7.40;;;5.20;;
4758;SDS011;2393;50.560;12.636;2023-04-29T03:12:10;5.77;;;5.17;;
4758;SDS011;2393;50.560;12.636;2023-04-29T03:14:38;7.20;;;4.83;;
4758;SDS011;2393;50.560;12.636;2023-04-29T03:17:06;7.73;;;5.40;;
4758;SDS011;2393;50.560;12.636;2023-04-29T03:19:34;6.33;;;4.90;;
4758;SDS011;2393;50.560;12.636;2023-04-29T03:22:03;8.00;;;4.90;;
4758;SDS011;2393;50.560;12.636;2023-04-29T03:24:33;4.23;;;3.83;;
4758;SDS011;2393;50.560;12.636;2023-04-29T03:27:02;6.20;;;4.47;;
4758;SDS011;2393;50.560;12.636;2023-04-29T03:29:32;4.60;;;3.93;;
4758;SDS011;2393;50.560;12.636;2023-04-29T03:32:00;7.20;;;4.67;;
4758;SDS011;2393;50.560;12.636;2023-04-29T03:34:29;13.17;;;5.27;;
4758;SDS011;2393;50.560;12.636;2023-04-29T03:37:26;4.57;;;4.00;;
4758;SDS011;2393;50.560;12.636;2023-04-29T03:40:07;9.30;;;6.00;;
4758;SDS011;2393;50.560;12.636;2023-04-29T03:42:36;7.70;;;4.03;;
4758;SDS011;2393;50.560;12.636;2023-04-29T03:45:05;7.90;;;5.63;;
4758;SDS011;2393;50.560;12.636;2023-04-29T03:47:34;6.47;;;4.50;;
4758;SDS011;2393;50.560;12.636;2023-04-29T03:50:02;6.57;;;4.47;;
4758;SDS011;2393;50.560;12.636;2023-04-29T03:52:33;7.40;;;4.97;;
4758;SDS011;2393;50.560;12.636;2023-04-29T03:55:08;7.07;;;4.60;;
4758;SDS011;2393;50.560;12.636;2023-04-29T03:57:37;9.63;;;6.17;;
4758;SDS011;2393;50.560;12.636;2023-04-29T04:00:08;7.97;;;5.30;;
4758;SDS011;2393;50.560;12.636;2023-04-29T04:02:43;7.80;;;5.60;;
4758;SDS011;2393;50.560;12.636;2023-04-29T04:05:12;10.03;;;5.30;;
4758;SDS011;2393;50.560;12.636;2023-04-29T04:07:48;6.90;;;5.30;;
4758;SDS011;2393;50.560;12.636;2023-04-29T04:10:35;9.20;;;5.07;;
4758;SDS011;2393;50.560;12.636;2023-04-29T04:13:17;8.03;;;5.43;;
4758;SDS011;2393;50.560;12.636;2023-04-29T04:15:48;5.90;;;4.90;;
4758;SDS011;2393;50.560;12.636;2023-04-29T04:18:17;10.07;;;5.33;;
4758;SDS011;2393;50.560;12.636;2023-04-29T04:20:45;7.37;;;5.10;;
4758;SDS011;2393;50.560;12.636;2023-04-29T04:23:14;9.43;;;4.50;;
4758;SDS011;2393;50.560;12.636;2023-04-29T04:25:43;7.20;;;4.60;;
4758;SDS011;2393;50.560;12.636;2023-04-29T04:28:36;7.70;;;5.03;;
4758;SDS011;2393;50.560;12.636;2023-04-29T04:31:26;9.93;;;5.10;;
4758;SDS011;2393;50.560;12.636;2023-04-29T04:33:55;8.07;;;5.57;;
4758;SDS011;2393;50.560;12.636;2023-04-29T04:36:25;7.87;;;5.20;;
4758;SDS011;2393;50.560;12.636;2023-04-29T04:38:55;7.70;;;5.30;;
4758;SDS011;2393;50.560;12.636;2023-04-29T04:41:24;5.10;;;4.60;;
4758;SDS011;2393;50.560;12.636;2023-04-29T04:43:52;10.00;;;5.50;;
4758;SDS011;2393;50.560;12.636;2023-04-29T04:46:33;9.53;;;5.73;;
4758;SDS011;2393;50.560;12.636;2023-04-29T04:49:13;7.80;;;5.47;;
4758;SDS011;2393;50.560;12.636;2023-04-29T04:51:47;6.00;;;5.00;;
4758;SDS011;2393;50.560;12.636;2023-04-29T04:54:17;7.60;;;4.90;;
4758;SDS011;2393;50.560;12.636;2023-04-29T04:56:49;8.60;;;5.50;;
4758;SDS011;2393;50.560;12.636;2023-04-29T04:59:17;10.40;;;6.20;;
4758;SDS011;2393;50.560;12.636;2023-04-29T05:01:46;7.80;;;5.93;;
4758;SDS011;2393;50.560;12.636;2023-04-29T05:04:14;8.70;;;5.20;;
4758;SDS011;2393;50.560;12.636;2023-04-29T05:06:43;8.03;;;5.43;;
4758;SDS011;2393;50.560;12.636;2023-04-29T05:09:11;8.50;;;6.10;;
4758;SDS011;2393;50.560;12.636;2023-04-29T05:11:41;8.03;;;5.67;;
4758;SDS011;2393;50.560;12.636;2023-04-29T05:14:12;7.67;;;5.20;;
4758;SDS011;2393;50.560;12.636;2023-04-29T05:16:40;5.87;;;4.50;;
4758;SDS011;2393;50.560;12.636;2023-04-29T05:19:09;8.60;;;5.00;;
4758;SDS011;2393;50.560;12.636;2023-04-29T05:21:38;5.10;;;4.07;;
4758;SDS011;2393;50.560;12.636;2023-04-29T05:24:09;8.37;;;5.70;;
4758;SDS011;2393;50.560;12.636;2023-04-29T05:26:38;7.20;;;4.23;;
4758;SDS011;2393;50.560;12.636;2023-04-29T05:29:08;8.13;;;4.47;;
4758;SDS011;2393;50.560;12.636;2023-04-29T05:31:49;4.97;;;4.50;;
4758;SDS011;2393;50.560;12.636;2023-04-29T05:34:17;8.70;;;5.30;;
4758;SDS011;2393;50.560;12.636;2023-04-29T05:36:45;6.20;;;4.07;;
4758;SDS011;2393;50.560;12.636;2023-04-29T05:39:14;6.27;;;4.00;;
4758;SDS011;2393;50.560;12.636;2023-04-29T05:41:44;5.87;;;3.93;;
4758;SDS011;2393;50.560;12.636;2023-04-29T05:44:18;5.67;;;4.27;;
4758;SDS011;2393;50.560;12.636;2023-04-29T05:46:47;4.73;;;4.00;;
4758;SDS011;2393;50.560;12.636;2023-04-29T05:49:17;7.50;;;4.70;;
4758;SDS011;2393;50.560;12.636;2023-04-29T05:51:45;4.63;;;4.00;;
4758;SDS011;2393;50.560;12.636;2023-04-29T05:54:13;6.47;;;4.90;;
4758;SDS011;2393;50.560;12.636;2023-04-29T05:56:43;6.50;;;4.30;;
4758;SDS011;2393;50.560;12.636;2023-04-29T05:59:12;6.13;;;4.57;;
4758;SDS011;2393;50.560;12.636;2023-04-29T06:01:46;5.33;;;3.90;;
4758;SDS011;2393;50.560;12.636;2023-04-29T06:04:14;6.87;;;4.43;;
4758;SDS011;2393;50.560;12.636;2023-04-29T06:06:52;6.10;;;4.00;;
4758;SDS011;2393;50.560;12.636;2023-04-29T06:09:47;5.63;;;4.00;;
4758;SDS011;2393;50.560;12.636;2023-04-29T06:12:15;4.53;;;3.50;;
4758;SDS011;2393;50.560;12.636;2023-04-29T06:14:45;4.60;;;3.60;;
4758;SDS011;2393;50.560;12.636;2023-04-29T06:17:14;3.10;;;2.80;;
4758;SDS011;2393;50.560;12.636;2023-04-29T06:19:42;3.23;;;2.93;;
4758;SDS011;2393;50.560;12.636;2023-04-29T06:22:10;3.60;;;2.80;;
4758;SDS011;2393;50.560;12.636;2023-04-29T06:24:45;3.00;;;2.73;;
4758;SDS011;2393;50.560;12.636;2023-04-29T06:27:23;3.37;;;3.00;;
4758;SDS011;2393;50.560;12.636;2023-04-29T06:29:51;3.63;;;3.17;;
4758;SDS011;2393;50.560;12.636;2023-04-29T06:32:22;6.57;;;4.00;;
4758;SDS011;2393;50.560;12.636;2023-04-29T06:34:50;4.33;;;3.07;;
4758;SDS011;2393;50.560;12.636;2023-04-29T06:37:25;4.60;;;4.20;;
4758;SDS011;2393;50.560;12.636;2023-04-29T06:40:29;5.87;;;4.90;;
4758;SDS011;2393;50.560;12.636;2023-04-29T06:43:04;8.60;;;4.50;;
4758;SDS011;2393;50.560;12.636;2023-04-29T06:45:52;6.10;;;3.60;;
4758;SDS011;2393;50.560;12.636;2023-04-29T06:48:28;6.07;;;4.43;;
4758;SDS011;2393;50.560;12.636;2023-04-29T06:50:56;7.20;;;4.70;;
4758;SDS011;2393;50.560;12.636;2023-04-29T06:53:25;8.10;;;4.63;;
4758;SDS011;2393;50.560;12.636;2023-04-29T06:55:53;7.10;;;4.40;;
4758;SDS011;2393;50.560;12.636;2023-04-29T06:58:21;5.47;;;4.10;;
4758;SDS011;2393;50.560;12.636;2023-04-29T07:00:49;8.17;;;4.67;;
4758;SDS011;2393;50.560;12.636;2023-04-29T07:03:20;7.40;;;5.17;;
4758;SDS011;2393;50.560;12.636;2023-04-29T07:05:50;8.40;;;5.50;;
4758;SDS011;2393;50.560;12.636;2023-04-29T07:08:18;8.60;;;5.30;;
4758;SDS011;2393;50.560;12.636;2023-04-29T07:10:52;6.00;;;5.33;;
4758;SDS011;2393;50.560;12.636;2023-04-29T07:13:22;11.03;;;5.23;;
4758;SDS011;2393;50.560;12.636;2023-04-29T07:15:50;6.30;;;5.17;;
4758;SDS011;2393;50.560;12.636;2023-04-29T07:18:18;6.70;;;4.77;;
4758;SDS011;2393;50.560;12.636;2023-04-29T07:20:46;6.40;;;4.77;;
4758;SDS011;2393;50.560;12.636;2023-04-29T07:23:18;6.77;;;4.10;;
4758;SDS011;2393;50.560;12.636;2023-04-29T07:25:46;6.47;;;4.90;;
4758;SDS011;2393;50.560;12.636;2023-04-29T07:28:15;9.43;;;5.23;;
4758;SDS011;2393;50.560;12.636;2023-04-29T07:30:43;7.40;;;4.33;;
4758;SDS011;2393;50.560;12.636;2023-04-29T07:33:11;6.80;;;5.20;;
4758;SDS011;2393;50.560;12.636;2023-04-29T07:35:39;9.33;;;5.17;;
4758;SDS011;2393;50.560;12.636;2023-04-29T07:38:10;8.73;;;5.53;;
4758;SDS011;2393;50.560;12.636;2023-04-29T07:40:40;7.27;;;5.50;;
4758;SDS011;2393;50.560;12.636;2023-04-29T07:43:08;10.33;;;6.10;;
4758;SDS011;2393;50.560;12.636;2023-04-29T07:45:36;8.47;;;6.13;;
4758;SDS011;2393;50.560;12.636;2023-04-29T07:48:05;8.97;;;5.70;;
4758;SDS011;2393;50.560;12.636;2023-04-29T07:50:34;8.37;;;5.80;;
4758;SDS011;2393;50.560;12.636;2023-04-29T07:53:02;7.83;;;5.33;;
4758;SDS011;2393;50.560;12.636;2023-04-29T07:55:31;7.97;;;5.17;;
4758;SDS011;2393;50.560;12.636;2023-04-29T07:58:01;8.23;;;5.37;;
4758;SDS011;2393;50.560;12.636;2023-04-29T08:00:29;6.97;;;4.53;;
4758;SDS011;2393;50.560;12.636;2023-04-29T08:02:57;8.23;;;5.33;;
4758;SDS011;2393;50.560;12.636;2023-04-29T08:05:25;7.30;;;4.67;;
4758;SDS011;2393;50.560;12.636;2023-04-29T08:07:53;7.80;;;5.00;;
4758;SDS011;2393;50.560;12.636;2023-04-29T08:10:24;4.10;;;3.67;;
4758;SDS011;2393;50.560;12.636;2023-04-29T08:12:52;6.97;;;4.47;;
4758;SDS011;2393;50.560;12.636;2023-04-29T08:15:23;4.33;;;3.50;;
4758;SDS011;2393;50.560;12.636;2023-04-29T08:17:51;5.77;;;3.73;;
4758;SDS011;2393;50.560;12.636;2023-04-29T08:20:19;5.47;;;4.53;;
4758;SDS011;2393;50.560;12.636;2023-04-29T08:22:47;7.00;;;4.47;;
4758;SDS011;2393;50.560;12.636;2023-04-29T08:25:15;6.13;;;4.47;;
4758;SDS011;2393;50.560;12.636;2023-04-29T08:27:44;10.23;;;5.73;;
4758;SDS011;2393;50.560;12.636;2023-04-29T08:30:12;7.80;;;5.90;;
4758;SDS011;2393;50.560;12.636;2023-04-29T08:32:41;7.93;;;5.20;;
4758;SDS011;2393;50.560;12.636;2023-04-29T08:35:09;9.47;;;6.10;;
4758;SDS011;2393;50.560;12.636;2023-04-29T08:37:37;9.97;;;6.77;;
4758;SDS011;2393;50.560;12.636;2023-04-29T08:40:07;11.17;;;6.10;;
4758;SDS011;2393;50.560;12.636;2023-04-29T08:42:35;10.87;;;5.57;;
4758;SDS011;2393;50.560;12.636;2023-04-29T08:45:05;11.47;;;6.60;;
4758;SDS011;2393;50.560;12.636;2023-04-29T08:47:33;10.60;;;6.47;;
4758;SDS011;2393;50.560;12.636;2023-04-29T08:50:05;13.13;;;7.27;;
4758;SDS011;2393;50.560;12.636;2023-04-29T08:52:34;7.97;;;6.13;;
4758;SDS011;2393;50.560;12.636;2023-04-29T08:55:02;12.57;;;6.47;;
4758;SDS011;2393;50.560;12.636;2023-04-29T08:57:32;11.93;;;7.17;;
4758;SDS011;2393;50.560;12.636;2023-04-29T09:00:05;8.33;;;5.77;;
4758;SDS011;2393;50.560;12.636;2023-04-29T09:02:38;10.13;;;6.23;;
4758;SDS011;2393;50.560;12.636;2023-04-29T09:05:13;10.87;;;6.73;;
4758;SDS011;2393;50.560;12.636;2023-04-29T09:07:41;12.20;;;6.93;;
4758;SDS011;2393;50.560;12.636;2023-04-29T09:10:11;9.97;;;5.97;;
4758;SDS011;2393;50.560;12.636;2023-04-29T09:12:40;11.33;;;6.43;;
4758;SDS011;2393;50.560;12.636;2023-04-29T09:15:08;9.90;;;7.20;;
4758;SDS011;2393;50.560;12.636;2023-04-29T09:17:37;8.00;;;4.73;;
4758;SDS011;2393;50.560;12.636;2023-04-29T09:20:26;8.40;;;6.17;;
4758;SDS011;2393;50.560;12.636;2023-04-29T09:22:56;6.67;;;4.03;;
4758;SDS011;2393;50.560;12.636;2023-04-29T09:25:27;7.10;;;3.93;;
4758;SDS011;2393;50.560;12.636;2023-04-29T09:27:56;4.90;;;3.93;;
4758;SDS011;2393;50.560;12.636;2023-04-29T09:30:24;6.90;;;4.90;;
4758;SDS011;2393;50.560;12.636;2023-04-29T09:33:03;8.17;;;5.00;;
4758;SDS011;2393;50.560;12.636;2023-04-29T09:35:34;5.87;;;3.87;;
4758;SDS011;2393;50.560;12.636;2023-04-29T09:38:12;4.97;;;3.87;;
4758;SDS011;2393;50.560;12.636;2023-04-29T09:40:42;7.50;;;4.30;;
4758;SDS011;2393;50.560;12.636;2023-04-29T09:43:24;4.73;;;3.67;;
4758;SDS011;2393;50.560;12.636;2023-04-29T09:45:52;5.30;;;3.87;;
4758;SDS011;2393;50.560;12.636;2023-04-29T09:48:21;3.70;;;3.27;;
4758;SDS011;2393;50.560;12.636;2023-04-29T09:50:59;4.83;;;3.77;;
4758;SDS011;2393;50.560;12.636;2023-04-29T09:53:29;4.73;;;3.60;;
4758;SDS011;2393;50.560;12.636;2023-04-29T09:55:58;3.67;;;3.13;;
4758;SDS011;2393;50.560;12.636;2023-04-29T09:58:27;4.40;;;3.30;;
4758;SDS011;2393;50.560;12.636;2023-04-29T10:00:57;11.70;;;7.13;;
4758;SDS011;2393;50.560;12.636;2023-04-29T10:03:28;11.93;;;7.33;;
4758;SDS011;2393;50.560;12.636;2023-04-29T10:06:00;8.40;;;5.23;;
4758;SDS011;2393;50.560;12.636;2023-04-29T10:08:30;5.23;;;3.63;;
4758;SDS011;2393;50.560;12.636;2023-04-29T10:11:01;5.30;;;3.33;;
4758;SDS011;2393;50.560;12.636;2023-04-29T10:13:32;3.60;;;3.30;;
4758;SDS011;2393;50.560;12.636;2023-04-29T10:16:06;4.33;;;3.83;;
4758;SDS011;2393;50.560;12.636;2023-04-29T10:18:43;5.10;;;3.60;;
4758;SDS011;2393;50.560;12.636;2023-04-29T10:21:17;5.30;;;3.90;;
4758;SDS011;2393;50.560;12.636;2023-04-29T10:23:47;5.47;;;3.70;;
4758;SDS011;2393;50.560;12.636;2023-04-29T10:26:16;7.77;;;4.27;;
4758;SDS011;2393;50.560;12.636;2023-04-29T10:28:46;5.13;;;3.87;;
4758;SDS011;2393;50.560;12.636;2023-04-29T10:31:17;5.63;;;3.03;;
4758;SDS011;2393;50.560;12.636;2023-04-29T10:33:49;7.67;;;3.50;;
4758;SDS011;2393;50.560;12.636;2023-04-29T10:36:21;4.17;;;3.53;;
4758;SDS011;2393;50.560;12.636;2023-04-29T10:38:52;4.27;;;3.63;;
4758;SDS011;2393;50.560;12.636;2023-04-29T10:41:24;6.63;;;3.70;;
4758;SDS011;2393;50.560;12.636;2023-04-29T10:43:54;7.33;;;4.40;;
4758;SDS011;2393;50.560;12.636;2023-04-29T10:46:23;4.10;;;3.70;;
4758;SDS011;2393;50.560;12.636;2023-04-29T10:48:55;4.47;;;4.03;;
4758;SDS011;2393;50.560;12.636;2023-04-29T10:51:28;4.50;;;3.80;;
4758;SDS011;2393;50.560;12.636;2023-04-29T10:54:00;7.43;;;4.57;;
4758;SDS011;2393;50.560;12.636;2023-04-29T10:56:40;5.57;;;3.50;;
4758;SDS011;2393;50.560;12.636;2023-04-29T10:59:10;7.33;;;4.30;;
4758;SDS011;2393;50.560;12.636;2023-04-29T11:01:40;6.60;;;4.57;;
4758;SDS011;2393;50.560;12.636;2023-04-29T11:04:10;11.20;;;7.17;;
4758;SDS011;2393;50.560;12.636;2023-04-29T11:06:41;4.60;;;3.03;;
4758;SDS011;2393;50.560;12.636;2023-04-29T11:09:12;8.40;;;5.37;;
4758;SDS011;2393;50.560;12.636;2023-04-29T11:11:55;5.07;;;2.90;;
4758;SDS011;2393;50.560;12.636;2023-04-29T11:14:26;5.60;;;3.97;;
4758;SDS011;2393;50.560;12.636;2023-04-29T11:16:56;46.70;;;21.60;;
4758;SDS011;2393;50.560;12.636;2023-04-29T11:19:29;15.53;;;8.17;;
4758;SDS011;2393;50.560;12.636;2023-04-29T11:22:10;11.07;;;6.40;;
4758;SDS011;2393;50.560;12.636;2023-04-29T11:24:49;9.67;;;3.50;;
4758;SDS011;2393;50.560;12.636;2023-04-29T11:27:19;3.50;;;3.17;;
4758;SDS011;2393;50.560;12.636;2023-04-29T11:29:51;2.40;;;2.30;;
4758;SDS011;2393;50.560;12.636;2023-04-29T11:32:24;2.90;;;2.70;;
4758;SDS011;2393;50.560;12.636;2023-04-29T11:34:52;9.70;;;5.27;;
4758;SDS011;2393;50.560;12.636;2023-04-29T11:37:23;8.73;;;5.53;;
4758;SDS011;2393;50.560;12.636;2023-04-29T11:39:57;11.33;;;7.03;;
4758;SDS011;2393;50.560;12.636;2023-04-29T11:42:26;9.97;;;6.63;;
4758;SDS011;2393;50.560;12.636;2023-04-29T11:44:54;10.00;;;6.60;;
4758;SDS011;2393;50.560;12.636;2023-04-29T11:47:25;10.87;;;5.80;;
4758;SDS011;2393;50.560;12.636;2023-04-29T11:50:01;8.90;;;6.30;;
4758;SDS011;2393;50.560;12.636;2023-04-29T11:52:32;10.00;;;7.10;;
4758;SDS011;2393;50.560;12.636;2023-04-29T11:55:02;7.63;;;5.60;;
4758;SDS011;2393;50.560;12.636;2023-04-29T11:57:31;9.17;;;6.17;;
4758;SDS011;2393;50.560;12.636;2023-04-29T11:59:59;13.43;;;7.53;;
4758;SDS011;2393;50.560;12.636;2023-04-29T12:02:33;10.63;;;6.77;;
4758;SDS011;2393;50.560;12.636;2023-04-29T12:05:04;10.93;;;6.63;;
4758;SDS011;2393;50.560;12.636;2023-04-29T12:07:35;11.47;;;7.27;;
4758;SDS011;2393;50.560;12.636;2023-04-29T12:10:06;11.60;;;8.57;;
4758;SDS011;2393;50.560;12.636;2023-04-29T12:12:36;11.57;;;8.13;;
4758;SDS011;2393;50.560;12.636;2023-04-29T12:15:07;10.77;;;8.00;;
4758;SDS011;2393;50.560;12.636;2023-04-29T12:17:36;15.17;;;8.93;;
4758;SDS011;2393;50.560;12.636;2023-04-29T12:20:05;13.20;;;8.50;;
4758;SDS011;2393;50.560;12.636;2023-04-29T12:22:36;17.83;;;10.20;;
4758;SDS011;2393;50.560;12.636;2023-04-29T12:25:04;18.30;;;10.87;;
4758;SDS011;2393;50.560;12.636;2023-04-29T12:27:34;17.67;;;12.87;;
4758;SDS011;2393;50.560;12.636;2023-04-29T12:30:05;21.70;;;11.93;;
4758;SDS011;2393;50.560;12.636;2023-04-29T12:32:35;20.57;;;11.83;;
4758;SDS011;2393;50.560;12.636;2023-04-29T12:35:03;21.40;;;12.80;;
4758;SDS011;2393;50.560;12.636;2023-04-29T12:37:32;20.50;;;12.53;;
4758;SDS011;2393;50.560;12.636;2023-04-29T12:40:02;21.97;;;13.83;;
4758;SDS011;2393;50.560;12.636;2023-04-29T12:42:31;21.37;;;12.83;;
4758;SDS011;2393;50.560;12.636;2023-04-29T12:44:59;21.10;;;12.70;;
4758;SDS011;2393;50.560;12.636;2023-04-29T12:47:30;22.53;;;12.83;;
4758;SDS011;2393;50.560;12.636;2023-04-29T12:50:00;21.67;;;13.63;;
4758;SDS011;2393;50.560;12.636;2023-04-29T12:52:28;26.20;;;13.93;;
4758;SDS011;2393;50.560;12.636;2023-04-29T12:54:56;25.73;;;13.63;;
4758;SDS011;2393;50.560;12.636;2023-04-29T12:57:26;28.07;;;12.80;;
4758;SDS011;2393;50.560;12.636;2023-04-29T12:59:54;22.27;;;13.30;;
4758;SDS011;2393;50.560;12.636;2023-04-29T13:02:23;21.70;;;13.90;;
4758;SDS011;2393;50.560;12.636;2023-04-29T13:04:51;25.17;;;13.77;;
4758;SDS011;2393;50.560;12.636;2023-04-29T13:07:20;23.77;;;14.40;;
4758;SDS011;2393;50.560;12.636;2023-04-29T13:09:48;27.40;;;14.60;;
4758;SDS011;2393;50.560;12.636;2023-04-29T13:12:16;24.87;;;13.70;;
4758;SDS011;2393;50.560;12.636;2023-04-29T13:14:45;31.97;;;15.40;;
4758;SDS011;2393;50.560;12.636;2023-04-29T13:17:14;27.00;;;13.60;;
4758;SDS011;2393;50.560;12.636;2023-04-29T13:19:42;21.57;;;13.17;;
4758;SDS011;2393;50.560;12.636;2023-04-29T13:22:17;23.17;;;12.07;;
4758;SDS011;2393;50.560;12.636;2023-04-29T13:24:45;21.60;;;12.60;;
4758;SDS011;2393;50.560;12.636;2023-04-29T13:27:13;21.57;;;12.10;;
4758;SDS011;2393;50.560;12.636;2023-04-29T13:29:41;21.10;;;12.33;;
4758;SDS011;2393;50.560;12.636;2023-04-29T13:32:11;24.50;;;12.03;;
4758;SDS011;2393;50.560;12.636;2023-04-29T13:34:39;20.50;;;10.53;;
4758;SDS011;2393;50.560;12.636;2023-04-29T13:37:09;22.37;;;11.30;;
4758;SDS011;2393;50.560;12.636;2023-04-29T13:39:37;18.70;;;11.17;;
4758;SDS011;2393;50.560;12.636;2023-04-29T13:42:05;18.40;;;9.40;;
4758;SDS011;2393;50.560;12.636;2023-04-29T13:44:34;27.20;;;9.20;;
4758;SDS011;2393;50.560;12.636;2023-04-29T13:47:24;15.97;;;9.17;;
4758;SDS011;2393;50.560;12.636;2023-04-29T13:49:56;15.33;;;10.37;;
4758;SDS011;2393;50.560;12.636;2023-04-29T13:52:44;14.93;;;8.20;;
4758;SDS011;2393;50.560;12.636;2023-04-29T13:55:33;13.47;;;8.73;;
4758;SDS011;2393;50.560;12.636;2023-04-29T13:58:03;23.73;;;8.93;;
4758;SDS011;2393;50.560;12.636;2023-04-29T14:00:35;21.23;;;11.47;;
4758;SDS011;2393;50.560;12.636;2023-04-29T14:03:25;12.27;;;8.43;;
4758;SDS011;2393;50.560;12.636;2023-04-29T14:05:55;18.53;;;9.97;;
4758;SDS011;2393;50.560;12.636;2023-04-29T14:08:23;13.27;;;8.90;;
4758;SDS011;2393;50.560;12.636;2023-04-29T14:10:51;11.20;;;8.30;;
4758;SDS011;2393;50.560;12.636;2023-04-29T14:13:19;13.80;;;8.60;;
4758;SDS011;2393;50.560;12.636;2023-04-29T14:15:48;10.00;;;7.90;;
4758;SDS011;2393;50.560;12.636;2023-04-29T14:18:16;15.80;;;8.40;;
4758;SDS011;2393;50.560;12.636;2023-04-29T14:20:46;12.17;;;7.50;;
4758;SDS011;2393;50.560;12.636;2023-04-29T14:23:14;13.20;;;7.80;;
4758;SDS011;2393;50.560;12.636;2023-04-29T14:25:42;19.73;;;7.27;;
4758;SDS011;2393;50.560;12.636;2023-04-29T14:28:11;12.57;;;8.27;;
4758;SDS011;2393;50.560;12.636;2023-04-29T14:30:40;13.83;;;7.53;;
4758;SDS011;2393;50.560;12.636;2023-04-29T14:33:12;13.10;;;7.13;;
4758;SDS011;2393;50.560;12.636;2023-04-29T14:35:40;12.00;;;7.57;;
4758;SDS011;2393;50.560;12.636;2023-04-29T14:38:09;13.63;;;7.77;;
4758;SDS011;2393;50.560;12.636;2023-04-29T14:40:38;9.10;;;7.13;;
4758;SDS011;2393;50.560;12.636;2023-04-29T14:43:06;10.03;;;7.13;;
4758;SDS011;2393;50.560;12.636;2023-04-29T14:45:34;11.60;;;8.07;;
4758;SDS011;2393;50.560;12.636;2023-04-29T14:48:03;17.63;;;8.13;;
4758;SDS011;2393;50.560;12.636;2023-04-29T14:50:32;11.20;;;8.17;;
4758;SDS011;2393;50.560;12.636;2023-04-29T14:53:00;13.10;;;9.17;;
4758;SDS011;2393;50.560;12.636;2023-04-29T14:55:31;12.10;;;8.20;;
4758;SDS011;2393;50.560;12.636;2023-04-29T14:57:59;12.13;;;7.60;;
4758;SDS011;2393;50.560;12.636;2023-04-29T15:00:30;18.30;;;10.40;;
4758;SDS011;2393;50.560;12.636;2023-04-29T15:02:59;11.57;;;8.47;;
4758;SDS011;2393;50.560;12.636;2023-04-29T15:05:29;10.20;;;7.10;;
4758;SDS011;2393;50.560;12.636;2023-04-29T15:07:57;12.63;;;7.43;;
4758;SDS011;2393;50.560;12.636;2023-04-29T15:10:27;8.57;;;7.37;;
4758;SDS011;2393;50.560;12.636;2023-04-29T15:12:56;11.97;;;7.77;;
4758;SDS011;2393;50.560;12.636;2023-04-29T15:15:25;10.60;;;7.20;;
4758;SDS011;2393;50.560;12.636;2023-04-29T15:17:54;8.83;;;7.20;;